Raccoon, Illinois
Current Conditions -  °F | °C
As of 2:35 PM on Friday 19 Dec 2014 (Local Time) from KENL Reporting Station
Overcast Overcast  
Wind Chill:   Ceiling: 3700
Heat Index:   Visibility: 10mi
Dew Point: -4°   Wind: 0mph
Humidity: 65%   Direction: NA
Pressure: 30.29"   Gusts: NA
Location:  38.5134°N, 89.1673°W
Report Text: KENL 192035Z AUTO 00000KT 10SM OVC037 02/M04 A3029 RMK AO2 T00181042
Loading
Personal Weather Stations






























Interactive Weather Map New forecast layout! Learn more

10-Day Weather Forecast

Advertisements
Track Severe Weather on mobile